sensor_id;sensor_type;location;lat;lon;timestamp;pressure;altitude;pressure_sealevel;temperature;humidity
16613;BME280;8419;52.358;9.752;2024-03-02T00:02:40;99749.00;;;16.65;39.84
16613;BME280;8419;52.358;9.752;2024-03-02T00:05:26;99748.00;;;16.67;39.92
16613;BME280;8419;52.358;9.752;2024-03-02T00:08:13;99745.00;;;16.63;39.99
16613;BME280;8419;52.358;9.752;2024-03-02T00:11:01;99745.00;;;16.59;40.08
16613;BME280;8419;52.358;9.752;2024-03-02T00:13:48;99745.00;;;16.63;40.04
16613;BME280;8419;52.358;9.752;2024-03-02T00:16:33;99748.00;;;16.64;40.05
16613;BME280;8419;52.358;9.752;2024-03-02T00:19:19;99746.00;;;16.73;39.89
16613;BME280;8419;52.358;9.752;2024-03-02T00:22:05;99742.00;;;16.69;40.02
16613;BME280;8419;52.358;9.752;2024-03-02T00:24:50;99744.00;;;16.68;40.00
16613;BME280;8419;52.358;9.752;2024-03-02T00:27:36;99755.00;;;16.68;40.04
16613;BME280;8419;52.358;9.752;2024-03-02T00:30:51;99750.00;;;16.69;40.06
16613;BME280;8419;52.358;9.752;2024-03-02T00:33:41;99751.00;;;16.87;39.77
16613;BME280;8419;52.358;9.752;2024-03-02T00:36:27;99749.00;;;16.89;39.68
16613;BME280;8419;52.358;9.752;2024-03-02T00:39:15;99749.00;;;16.90;39.66
16613;BME280;8419;52.358;9.752;2024-03-02T00:42:03;99755.00;;;16.92;39.67
16613;BME280;8419;52.358;9.752;2024-03-02T00:44:48;99755.00;;;16.78;39.93
16613;BME280;8419;52.358;9.752;2024-03-02T00:47:38;99746.00;;;16.71;40.12
16613;BME280;8419;52.358;9.752;2024-03-02T00:50:23;99749.00;;;16.73;40.15
16613;BME280;8419;52.358;9.752;2024-03-02T00:53:10;99754.00;;;16.74;40.16
16613;BME280;8419;52.358;9.752;2024-03-02T00:55:56;99751.00;;;16.72;40.18
16613;BME280;8419;52.358;9.752;2024-03-02T00:58:41;99758.00;;;16.80;40.07
16613;BME280;8419;52.358;9.752;2024-03-02T01:01:26;99757.00;;;16.73;40.21
16613;BME280;8419;52.358;9.752;2024-03-02T01:04:12;99755.00;;;16.72;40.26
16613;BME280;8419;52.358;9.752;2024-03-02T01:06:59;99748.00;;;16.71;40.30
16613;BME280;8419;52.358;9.752;2024-03-02T01:09:44;99755.00;;;16.72;40.31
16613;BME280;8419;52.358;9.752;2024-03-02T01:12:30;99754.00;;;16.69;40.39
16613;BME280;8419;52.358;9.752;2024-03-02T01:15:15;99751.00;;;16.69;40.43
16613;BME280;8419;52.358;9.752;2024-03-02T01:18:00;99755.00;;;16.69;40.48
16613;BME280;8419;52.358;9.752;2024-03-02T01:20:45;99759.00;;;16.71;40.45
16613;BME280;8419;52.358;9.752;2024-03-02T01:23:30;99760.00;;;16.72;40.46
16613;BME280;8419;52.358;9.752;2024-03-02T01:26:16;99766.00;;;16.75;40.46
16613;BME280;8419;52.358;9.752;2024-03-02T01:29:02;99763.00;;;16.83;40.25
16613;BME280;8419;52.358;9.752;2024-03-02T01:31:47;99763.00;;;16.81;40.31
16613;BME280;8419;52.358;9.752;2024-03-02T01:34:33;99760.00;;;16.78;40.36
16613;BME280;8419;52.358;9.752;2024-03-02T01:37:18;99757.00;;;16.86;40.27
16613;BME280;8419;52.358;9.752;2024-03-02T01:40:06;99755.00;;;16.81;40.36
16613;BME280;8419;52.358;9.752;2024-03-02T01:42:54;99756.00;;;16.75;40.52
16613;BME280;8419;52.358;9.752;2024-03-02T01:45:40;99752.00;;;16.71;40.54
16613;BME280;8419;52.358;9.752;2024-03-02T01:48:26;99756.00;;;16.66;40.66
16613;BME280;8419;52.358;9.752;2024-03-02T01:51:11;99758.00;;;16.72;40.58
16613;BME280;8419;52.358;9.752;2024-03-02T01:53:56;99755.00;;;16.78;40.50
16613;BME280;8419;52.358;9.752;2024-03-02T01:56:42;99752.00;;;16.79;40.38
16613;BME280;8419;52.358;9.752;2024-03-02T01:59:27;99744.00;;;16.92;40.11
16613;BME280;8419;52.358;9.752;2024-03-02T02:02:13;99739.00;;;16.85;40.28
16613;BME280;8419;52.358;9.752;2024-03-02T02:04:59;99741.00;;;16.81;40.33
16613;BME280;8419;52.358;9.752;2024-03-02T02:07:44;99735.00;;;16.76;40.41
16613;BME280;8419;52.358;9.752;2024-03-02T02:10:30;99725.00;;;16.81;40.34
16613;BME280;8419;52.358;9.752;2024-03-02T02:13:16;99727.00;;;16.84;40.28
16613;BME280;8419;52.358;9.752;2024-03-02T02:16:06;99728.00;;;16.73;40.46
16613;BME280;8419;52.358;9.752;2024-03-02T02:18:52;99716.00;;;16.66;40.66
16613;BME280;8419;52.358;9.752;2024-03-02T02:21:37;99720.00;;;16.60;40.72
16613;BME280;8419;52.358;9.752;2024-03-02T02:24:24;99716.00;;;16.59;40.73
16613;BME280;8419;52.358;9.752;2024-03-02T02:27:10;99713.00;;;16.59;40.75
16613;BME280;8419;52.358;9.752;2024-03-02T02:29:57;99715.00;;;16.57;40.77
16613;BME280;8419;52.358;9.752;2024-03-02T02:32:42;99721.00;;;16.63;40.67
16613;BME280;8419;52.358;9.752;2024-03-02T02:35:28;99716.00;;;16.64;40.61
16613;BME280;8419;52.358;9.752;2024-03-02T02:38:14;99715.00;;;16.67;40.57
16613;BME280;8419;52.358;9.752;2024-03-02T02:41:00;99718.00;;;16.64;40.63
16613;BME280;8419;52.358;9.752;2024-03-02T02:43:45;99711.00;;;16.49;40.92
16613;BME280;8419;52.358;9.752;2024-03-02T02:46:31;99720.00;;;16.52;40.88
16613;BME280;8419;52.358;9.752;2024-03-02T02:49:17;99721.00;;;16.47;40.96
16613;BME280;8419;52.358;9.752;2024-03-02T02:52:02;99718.00;;;16.43;41.02
16613;BME280;8419;52.358;9.752;2024-03-02T02:54:47;99713.00;;;16.46;40.97
16613;BME280;8419;52.358;9.752;2024-03-02T02:57:33;99719.00;;;16.45;40.99
16613;BME280;8419;52.358;9.752;2024-03-02T03:00:21;99712.00;;;16.43;41.01
16613;BME280;8419;52.358;9.752;2024-03-02T03:03:08;99706.00;;;16.44;40.94
16613;BME280;8419;52.358;9.752;2024-03-02T03:05:55;99708.00;;;16.40;41.02
16613;BME280;8419;52.358;9.752;2024-03-02T03:08:40;99702.00;;;16.45;40.92
16613;BME280;8419;52.358;9.752;2024-03-02T03:11:25;99703.00;;;16.48;40.77
16613;BME280;8419;52.358;9.752;2024-03-02T03:14:11;99695.00;;;16.36;40.93
16613;BME280;8419;52.358;9.752;2024-03-02T03:16:56;99695.00;;;16.32;40.92
16613;BME280;8419;52.358;9.752;2024-03-02T03:19:42;99698.00;;;16.15;41.16
16613;BME280;8419;52.358;9.752;2024-03-02T03:22:27;99695.00;;;16.04;41.32
16613;BME280;8419;52.358;9.752;2024-03-02T03:25:13;99696.00;;;15.98;41.36
16613;BME280;8419;52.358;9.752;2024-03-02T03:27:58;99702.00;;;15.92;41.40
16613;BME280;8419;52.358;9.752;2024-03-02T03:30:43;99695.00;;;15.91;41.35
16613;BME280;8419;52.358;9.752;2024-03-02T03:33:28;99696.00;;;15.84;41.43
16613;BME280;8419;52.358;9.752;2024-03-02T03:36:14;99694.00;;;15.77;41.49
16613;BME280;8419;52.358;9.752;2024-03-02T03:39:00;99685.00;;;15.70;41.60
16613;BME280;8419;52.358;9.752;2024-03-02T03:41:48;99690.00;;;15.70;41.57
16613;BME280;8419;52.358;9.752;2024-03-02T03:44:33;99686.00;;;15.66;41.60
16613;BME280;8419;52.358;9.752;2024-03-02T03:47:19;99688.00;;;15.67;41.47
16613;BME280;8419;52.358;9.752;2024-03-02T03:50:08;99695.00;;;15.57;41.63
16613;BME280;8419;52.358;9.752;2024-03-02T03:52:54;99690.00;;;15.52;41.73
16613;BME280;8419;52.358;9.752;2024-03-02T03:55:39;99693.00;;;15.48;41.78
16613;BME280;8419;52.358;9.752;2024-03-02T03:58:24;99691.00;;;15.44;41.79
16613;BME280;8419;52.358;9.752;2024-03-02T04:01:10;99686.00;;;15.39;41.89
16613;BME280;8419;52.358;9.752;2024-03-02T04:03:55;99689.00;;;15.33;41.90
16613;BME280;8419;52.358;9.752;2024-03-02T04:06:40;99691.00;;;15.28;41.96
16613;BME280;8419;52.358;9.752;2024-03-02T04:09:26;99687.00;;;15.22;42.04
16613;BME280;8419;52.358;9.752;2024-03-02T04:12:12;99692.00;;;15.22;42.02
16613;BME280;8419;52.358;9.752;2024-03-02T04:14:57;99694.00;;;15.29;41.87
16613;BME280;8419;52.358;9.752;2024-03-02T04:17:43;99691.00;;;15.28;41.87
16613;BME280;8419;52.358;9.752;2024-03-02T04:20:28;99689.00;;;15.14;42.09
16613;BME280;8419;52.358;9.752;2024-03-02T04:23:15;99694.00;;;15.07;42.19
16613;BME280;8419;52.358;9.752;2024-03-02T04:26:00;99689.00;;;15.01;42.30
16613;BME280;8419;52.358;9.752;2024-03-02T04:28:45;99689.00;;;14.99;42.32
16613;BME280;8419;52.358;9.752;2024-03-02T04:31:31;99691.00;;;15.02;42.24
16613;BME280;8419;52.358;9.752;2024-03-02T04:34:16;99689.00;;;14.91;42.37
16613;BME280;8419;52.358;9.752;2024-03-02T04:37:02;99690.00;;;14.79;42.66
16613;BME280;8419;52.358;9.752;2024-03-02T04:39:47;99695.00;;;14.74;42.73
16613;BME280;8419;52.358;9.752;2024-03-02T04:42:32;99691.00;;;14.83;42.50
16613;BME280;8419;52.358;9.752;2024-03-02T04:45:18;99691.00;;;14.79;42.53
16613;BME280;8419;52.358;9.752;2024-03-02T04:48:04;99699.00;;;14.75;42.61
16613;BME280;8419;52.358;9.752;2024-03-02T04:50:49;99701.00;;;14.73;42.61
16613;BME280;8419;52.358;9.752;2024-03-02T04:53:35;99697.00;;;14.72;42.60
16613;BME280;8419;52.358;9.752;2024-03-02T04:56:21;99697.00;;;14.69;42.64
16613;BME280;8419;52.358;9.752;2024-03-02T04:59:25;99696.00;;;14.67;42.67
16613;BME280;8419;52.358;9.752;2024-03-02T05:02:10;99687.00;;;14.65;42.69
16613;BME280;8419;52.358;9.752;2024-03-02T05:04:56;99686.00;;;14.63;42.73
16613;BME280;8419;52.358;9.752;2024-03-02T05:07:41;99691.00;;;14.64;42.74
16613;BME280;8419;52.358;9.752;2024-03-02T05:10:28;99691.00;;;14.54;42.90
16613;BME280;8419;52.358;9.752;2024-03-02T05:13:14;99687.00;;;14.59;42.84
16613;BME280;8419;52.358;9.752;2024-03-02T05:16:00;99691.00;;;14.60;42.85
16613;BME280;8419;52.358;9.752;2024-03-02T05:18:45;99692.00;;;14.63;42.85
16613;BME280;8419;52.358;9.752;2024-03-02T05:21:30;99694.00;;;14.60;42.86
16613;BME280;8419;52.358;9.752;2024-03-02T05:24:16;99686.00;;;14.60;42.87
16613;BME280;8419;52.358;9.752;2024-03-02T05:27:01;99700.00;;;14.56;42.92
16613;BME280;8419;52.358;9.752;2024-03-02T05:29:47;99688.00;;;14.55;42.95
16613;BME280;8419;52.358;9.752;2024-03-02T05:32:32;99676.00;;;14.52;43.01
16613;BME280;8419;52.358;9.752;2024-03-02T05:35:19;99686.00;;;14.51;43.00
16613;BME280;8419;52.358;9.752;2024-03-02T05:38:05;99690.00;;;14.47;43.08
16613;BME280;8419;52.358;9.752;2024-03-02T05:40:51;99685.00;;;14.50;43.07
16613;BME280;8419;52.358;9.752;2024-03-02T05:43:36;99690.00;;;14.47;43.09
16613;BME280;8419;52.358;9.752;2024-03-02T05:46:21;99694.00;;;14.43;43.17
16613;BME280;8419;52.358;9.752;2024-03-02T05:49:07;99692.00;;;14.39;43.22
16613;BME280;8419;52.358;9.752;2024-03-02T05:51:53;99697.00;;;14.40;43.24
16613;BME280;8419;52.358;9.752;2024-03-02T05:54:38;99705.00;;;14.37;43.33
16613;BME280;8419;52.358;9.752;2024-03-02T05:57:24;99713.00;;;14.26;43.63
16613;BME280;8419;52.358;9.752;2024-03-02T06:00:24;99720.00;;;14.24;43.71
16613;BME280;8419;52.358;9.752;2024-03-02T06:03:09;99707.00;;;14.22;43.76
16613;BME280;8419;52.358;9.752;2024-03-02T06:05:55;99710.00;;;14.23;43.81
16613;BME280;8419;52.358;9.752;2024-03-02T06:08:41;99711.00;;;14.25;43.80
16613;BME280;8419;52.358;9.752;2024-03-02T06:11:26;99713.00;;;14.32;43.71
16613;BME280;8419;52.358;9.752;2024-03-02T06:14:12;99720.00;;;14.28;43.77
16613;BME280;8419;52.358;9.752;2024-03-02T06:16:58;99717.00;;;14.25;43.89
16613;BME280;8419;52.358;9.752;2024-03-02T06:19:44;99723.00;;;14.26;43.92
16613;BME280;8419;52.358;9.752;2024-03-02T06:22:30;99722.00;;;14.25;43.94
16613;BME280;8419;52.358;9.752;2024-03-02T06:25:15;99732.00;;;14.26;43.97
16613;BME280;8419;52.358;9.752;2024-03-02T06:28:01;99725.00;;;14.33;43.84
16613;BME280;8419;52.358;9.752;2024-03-02T06:30:49;99730.00;;;14.36;43.88
16613;BME280;8419;52.358;9.752;2024-03-02T06:33:42;99736.00;;;14.38;43.93
16613;BME280;8419;52.358;9.752;2024-03-02T06:36:28;99735.00;;;14.44;43.92
16613;BME280;8419;52.358;9.752;2024-03-02T06:39:13;99730.00;;;14.49;43.84
16613;BME280;8419;52.358;9.752;2024-03-02T06:42:02;99732.00;;;14.50;43.88
16613;BME280;8419;52.358;9.752;2024-03-02T06:44:48;99738.00;;;14.54;43.88
16613;BME280;8419;52.358;9.752;2024-03-02T06:47:33;99740.00;;;14.56;43.91
16613;BME280;8419;52.358;9.752;2024-03-02T06:50:18;99742.00;;;14.75;43.61
16613;BME280;8419;52.358;9.752;2024-03-02T06:53:04;99738.00;;;14.70;43.78
16613;BME280;8419;52.358;9.752;2024-03-02T06:55:49;99745.00;;;14.80;43.73
16613;BME280;8419;52.358;9.752;2024-03-02T06:58:35;99752.00;;;14.81;43.76
16613;BME280;8419;52.358;9.752;2024-03-02T07:01:20;99748.00;;;14.85;43.77
16613;BME280;8419;52.358;9.752;2024-03-02T07:04:06;99747.00;;;14.99;43.58
16613;BME280;8419;52.358;9.752;2024-03-02T07:06:52;99746.00;;;15.05;43.60
16613;BME280;8419;52.358;9.752;2024-03-02T07:09:37;99746.00;;;15.14;43.49
16613;BME280;8419;52.358;9.752;2024-03-02T07:12:22;99745.00;;;15.20;43.49
16613;BME280;8419;52.358;9.752;2024-03-02T07:15:09;99753.00;;;15.25;43.48
16613;BME280;8419;52.358;9.752;2024-03-02T07:18:15;99756.00;;;15.31;43.44
16613;BME280;8419;52.358;9.752;2024-03-02T07:21:01;99761.00;;;15.37;43.32
16613;BME280;8419;52.358;9.752;2024-03-02T07:23:47;99763.00;;;15.40;43.31
16613;BME280;8419;52.358;9.752;2024-03-02T07:26:32;99765.00;;;15.48;43.25
16613;BME280;8419;52.358;9.752;2024-03-02T07:29:17;99769.00;;;15.49;43.30
16613;BME280;8419;52.358;9.752;2024-03-02T07:32:05;99766.00;;;15.47;43.39
16613;BME280;8419;52.358;9.752;2024-03-02T07:34:51;99772.00;;;15.51;43.37
16613;BME280;8419;52.358;9.752;2024-03-02T07:37:38;99770.00;;;15.56;43.29
16613;BME280;8419;52.358;9.752;2024-03-02T07:40:24;99782.00;;;15.63;43.19
16613;BME280;8419;52.358;9.752;2024-03-02T07:43:10;99783.00;;;15.76;42.95
16613;BME280;8419;52.358;9.752;2024-03-02T07:45:56;99783.00;;;15.70;43.11
16613;BME280;8419;52.358;9.752;2024-03-02T07:48:42;99791.00;;;15.76;43.06
16613;BME280;8419;52.358;9.752;2024-03-02T07:51:28;99791.00;;;15.83;43.00
16613;BME280;8419;52.358;9.752;2024-03-02T07:54:13;99787.00;;;15.89;42.92
16613;BME280;8419;52.358;9.752;2024-03-02T07:56:59;99796.00;;;16.04;42.72
16613;BME280;8419;52.358;9.752;2024-03-02T07:59:44;99794.00;;;16.09;42.75
16613;BME280;8419;52.358;9.752;2024-03-02T08:02:30;99794.00;;;16.22;42.52
16613;BME280;8419;52.358;9.752;2024-03-02T08:05:16;99785.00;;;16.19;42.62
16613;BME280;8419;52.358;9.752;2024-03-02T08:08:01;99795.00;;;16.27;42.59
16613;BME280;8419;52.358;9.752;2024-03-02T08:10:47;99796.00;;;16.35;42.50
16613;BME280;8419;52.358;9.752;2024-03-02T08:13:34;99789.00;;;16.44;42.42
16613;BME280;8419;52.358;9.752;2024-03-02T08:16:20;99801.00;;;16.51;42.37
16613;BME280;8419;52.358;9.752;2024-03-02T08:19:06;99807.00;;;16.65;42.25
16613;BME280;8419;52.358;9.752;2024-03-02T08:21:52;99807.00;;;16.77;42.10
16613;BME280;8419;52.358;9.752;2024-03-02T08:24:37;99808.00;;;17.00;41.79
16613;BME280;8419;52.358;9.752;2024-03-02T08:27:22;99803.00;;;17.13;41.61
16613;BME280;8419;52.358;9.752;2024-03-02T08:30:11;99799.00;;;17.20;41.61
16613;BME280;8419;52.358;9.752;2024-03-02T08:32:57;99799.00;;;17.33;41.44
16613;BME280;8419;52.358;9.752;2024-03-02T08:35:43;99805.00;;;17.38;41.41
16613;BME280;8419;52.358;9.752;2024-03-02T08:38:28;99807.00;;;17.53;41.26
16613;BME280;8419;52.358;9.752;2024-03-02T08:41:15;99803.00;;;17.63;41.12
16613;BME280;8419;52.358;9.752;2024-03-02T08:44:01;99808.00;;;17.80;40.90
16613;BME280;8419;52.358;9.752;2024-03-02T08:46:47;99811.00;;;17.90;40.77
16613;BME280;8419;52.358;9.752;2024-03-02T08:49:32;99817.00;;;17.92;40.80
16613;BME280;8419;52.358;9.752;2024-03-02T08:52:18;99801.00;;;18.01;40.68
16613;BME280;8419;52.358;9.752;2024-03-02T08:55:05;99805.00;;;18.25;40.29
16613;BME280;8419;52.358;9.752;2024-03-02T08:57:52;99812.00;;;18.41;40.06
16613;BME280;8419;52.358;9.752;2024-03-02T09:00:38;99813.00;;;18.61;39.81
16613;BME280;8419;52.358;9.752;2024-03-02T09:03:24;99820.00;;;18.62;39.79
16613;BME280;8419;52.358;9.752;2024-03-02T09:06:09;99818.00;;;18.65;39.78
16613;BME280;8419;52.358;9.752;2024-03-02T09:08:55;99816.00;;;18.80;39.60
16613;BME280;8419;52.358;9.752;2024-03-02T09:11:40;99804.00;;;18.88;39.42
16613;BME280;8419;52.358;9.752;2024-03-02T09:14:26;99815.00;;;18.94;39.31
16613;BME280;8419;52.358;9.752;2024-03-02T09:17:12;99815.00;;;19.09;38.97
16613;BME280;8419;52.358;9.752;2024-03-02T09:20:01;99814.00;;;19.11;38.76
16613;BME280;8419;52.358;9.752;2024-03-02T09:22:49;99821.00;;;19.14;38.78
16613;BME280;8419;52.358;9.752;2024-03-02T09:25:35;99815.00;;;19.12;38.68
16613;BME280;8419;52.358;9.752;2024-03-02T09:28:21;99815.00;;;19.18;38.64
16613;BME280;8419;52.358;9.752;2024-03-02T09:31:06;99817.00;;;19.16;38.75
16613;BME280;8419;52.358;9.752;2024-03-02T09:33:51;99819.00;;;19.26;38.63
16613;BME280;8419;52.358;9.752;2024-03-02T09:36:37;99818.00;;;19.34;38.43
16613;BME280;8419;52.358;9.752;2024-03-02T09:39:23;99819.00;;;19.44;38.32
16613;BME280;8419;52.358;9.752;2024-03-02T09:42:10;99830.00;;;19.66;37.98
16613;BME280;8419;52.358;9.752;2024-03-02T09:44:57;99826.00;;;19.65;38.04
16613;BME280;8419;52.358;9.752;2024-03-02T09:47:44;99830.00;;;19.81;37.84
16613;BME280;8419;52.358;9.752;2024-03-02T09:50:30;99823.00;;;20.02;37.42
16613;BME280;8419;52.358;9.752;2024-03-02T09:53:16;99826.00;;;20.11;37.28
16613;BME280;8419;52.358;9.752;2024-03-02T09:56:04;99828.00;;;20.13;37.15
16613;BME280;8419;52.358;9.752;2024-03-02T09:58:50;99841.00;;;20.16;37.13
16613;BME280;8419;52.358;9.752;2024-03-02T10:01:37;99849.00;;;20.08;37.34
16613;BME280;8419;52.358;9.752;2024-03-02T10:04:22;99838.00;;;20.18;37.26
16613;BME280;8419;52.358;9.752;2024-03-02T10:07:13;99845.00;;;20.21;37.09
16613;BME280;8419;52.358;9.752;2024-03-02T10:10:12;99841.00;;;20.19;37.04
16613;BME280;8419;52.358;9.752;2024-03-02T10:13:04;99844.00;;;20.25;37.05
16613;BME280;8419;52.358;9.752;2024-03-02T10:15:50;99849.00;;;20.25;37.03
16613;BME280;8419;52.358;9.752;2024-03-02T10:18:36;99858.00;;;20.27;36.94
16613;BME280;8419;52.358;9.752;2024-03-02T10:21:21;99849.00;;;20.26;36.93
16613;BME280;8419;52.358;9.752;2024-03-02T10:24:09;99852.00;;;20.44;36.58
16613;BME280;8419;52.358;9.752;2024-03-02T10:26:55;99848.00;;;20.30;36.79
16613;BME280;8419;52.358;9.752;2024-03-02T10:29:45;99852.00;;;20.39;36.66
16613;BME280;8419;52.358;9.752;2024-03-02T10:32:31;99858.00;;;20.46;36.59
16613;BME280;8419;52.358;9.752;2024-03-02T10:35:17;99851.00;;;20.54;36.49
16613;BME280;8419;52.358;9.752;2024-03-02T10:38:04;99855.00;;;20.60;36.39
16613;BME280;8419;52.358;9.752;2024-03-02T10:40:51;99854.00;;;20.60;36.38
16613;BME280;8419;52.358;9.752;2024-03-02T10:43:38;99859.00;;;20.72;36.19
16613;BME280;8419;52.358;9.752;2024-03-02T10:46:28;99856.00;;;20.77;35.89
16613;BME280;8419;52.358;9.752;2024-03-02T10:49:14;99854.00;;;20.76;35.80
16613;BME280;8419;52.358;9.752;2024-03-02T10:52:00;99852.00;;;20.84;35.78
16613;BME280;8419;52.358;9.752;2024-03-02T10:54:46;99844.00;;;21.02;35.53
16613;BME280;8419;52.358;9.752;2024-03-02T10:57:36;99845.00;;;21.09;35.40
16613;BME280;8419;52.358;9.752;2024-03-02T11:00:27;99847.00;;;21.01;35.58
16613;BME280;8419;52.358;9.752;2024-03-02T11:06:04;99853.00;;;21.37;35.06
16613;BME280;8419;52.358;9.752;2024-03-02T11:08:53;99848.00;;;21.44;34.97
16613;BME280;8419;52.358;9.752;2024-03-02T11:11:44;99845.00;;;21.61;34.70
16613;BME280;8419;52.358;9.752;2024-03-02T11:14:31;99844.00;;;21.59;34.72
16613;BME280;8419;52.358;9.752;2024-03-02T11:17:19;99840.00;;;21.74;34.50
16613;BME280;8419;52.358;9.752;2024-03-02T11:20:07;99834.00;;;21.87;34.36
16613;BME280;8419;52.358;9.752;2024-03-02T11:22:53;99842.00;;;21.98;34.17
16613;BME280;8419;52.358;9.752;2024-03-02T11:25:39;99842.00;;;22.05;34.02
16613;BME280;8419;52.358;9.752;2024-03-02T11:28:35;99848.00;;;22.11;33.89
16613;BME280;8419;52.358;9.752;2024-03-02T11:31:21;99846.00;;;22.30;33.56
16613;BME280;8419;52.358;9.752;2024-03-02T11:34:18;99842.00;;;22.17;33.68
16613;BME280;8419;52.358;9.752;2024-03-02T11:37:16;99844.00;;;22.24;33.60
16613;BME280;8419;52.358;9.752;2024-03-02T11:40:04;99837.00;;;22.34;33.36
16613;BME280;8419;52.358;9.752;2024-03-02T11:42:49;99834.00;;;22.31;33.34
16613;BME280;8419;52.358;9.752;2024-03-02T11:45:36;99836.00;;;22.35;33.20
16613;BME280;8419;52.358;9.752;2024-03-02T11:48:26;99835.00;;;22.30;33.17
16613;BME280;8419;52.358;9.752;2024-03-02T11:51:11;99842.00;;;22.44;32.89
16613;BME280;8419;52.358;9.752;2024-03-02T11:53:58;99839.00;;;22.32;32.97
16613;BME280;8419;52.358;9.752;2024-03-02T11:56:44;99832.00;;;22.39;32.85
16613;BME280;8419;52.358;9.752;2024-03-02T11:59:30;99833.00;;;22.40;32.75
16613;BME280;8419;52.358;9.752;2024-03-02T12:02:18;99833.00;;;22.51;32.62
16613;BME280;8419;52.358;9.752;2024-03-02T12:05:05;99828.00;;;22.82;32.16
16613;BME280;8419;52.358;9.752;2024-03-02T12:07:58;99818.00;;;23.06;31.98
16613;BME280;8419;52.358;9.752;2024-03-02T12:10:58;99818.00;;;23.30;31.70
16613;BME280;8419;52.358;9.752;2024-03-02T12:13:53;99825.00;;;23.41;31.47
16613;BME280;8419;52.358;9.752;2024-03-02T12:16:44;99822.00;;;23.45;31.29
16613;BME280;8419;52.358;9.752;2024-03-02T12:19:33;99814.00;;;23.35;31.32
16613;BME280;8419;52.358;9.752;2024-03-02T12:22:18;99822.00;;;23.24;31.40
16613;BME280;8419;52.358;9.752;2024-03-02T12:25:06;99815.00;;;23.10;31.45
16613;BME280;8419;52.358;9.752;2024-03-02T12:27:53;99812.00;;;23.01;31.49
16613;BME280;8419;52.358;9.752;2024-03-02T12:30:39;99808.00;;;22.91;31.46
16613;BME280;8419;52.358;9.752;2024-03-02T12:33:25;99805.00;;;22.80;31.50
16613;BME280;8419;52.358;9.752;2024-03-02T12:36:13;99806.00;;;22.93;31.34
16613;BME280;8419;52.358;9.752;2024-03-02T12:38:59;99794.00;;;23.25;30.82
16613;BME280;8419;52.358;9.752;2024-03-02T12:41:45;99803.00;;;23.27;30.60
16613;BME280;8419;52.358;9.752;2024-03-02T12:44:31;99810.00;;;23.40;30.45
16613;BME280;8419;52.358;9.752;2024-03-02T12:47:16;99808.00;;;23.40;30.36
16613;BME280;8419;52.358;9.752;2024-03-02T12:50:01;99796.00;;;23.46;30.24
16613;BME280;8419;52.358;9.752;2024-03-02T12:52:52;99794.00;;;23.86;29.75
16613;BME280;8419;52.358;9.752;2024-03-02T12:55:38;99792.00;;;24.19;29.43
16613;BME280;8419;52.358;9.752;2024-03-02T12:58:23;99793.00;;;24.65;28.71
16613;BME280;8419;52.358;9.752;2024-03-02T13:01:08;99786.00;;;25.15;28.29
16613;BME280;8419;52.358;9.752;2024-03-02T13:03:55;99783.00;;;25.38;27.92
16613;BME280;8419;52.358;9.752;2024-03-02T13:06:45;99782.00;;;25.66;27.79
16613;BME280;8419;52.358;9.752;2024-03-02T13:09:31;99788.00;;;25.89;27.25
16613;BME280;8419;52.358;9.752;2024-03-02T13:12:19;99781.00;;;25.97;26.98
16613;BME280;8419;52.358;9.752;2024-03-02T13:15:06;99784.00;;;26.10;26.67
16613;BME280;8419;52.358;9.752;2024-03-02T13:17:52;99786.00;;;26.08;26.33
16613;BME280;8419;52.358;9.752;2024-03-02T13:20:37;99788.00;;;26.09;26.14
16613;BME280;8419;52.358;9.752;2024-03-02T13:23:25;99785.00;;;26.39;26.01
16613;BME280;8419;52.358;9.752;2024-03-02T13:26:10;99779.00;;;26.79;25.54
16613;BME280;8419;52.358;9.752;2024-03-02T13:28:57;99782.00;;;26.93;25.29
16613;BME280;8419;52.358;9.752;2024-03-02T13:31:42;99780.00;;;27.00;25.20
16613;BME280;8419;52.358;9.752;2024-03-02T13:34:28;99769.00;;;27.13;25.12
16613;BME280;8419;52.358;9.752;2024-03-02T13:37:13;99778.00;;;27.22;25.06
16613;BME280;8419;52.358;9.752;2024-03-02T13:39:59;99769.00;;;27.26;24.97
16613;BME280;8419;52.358;9.752;2024-03-02T13:42:44;99766.00;;;27.26;25.09
16613;BME280;8419;52.358;9.752;2024-03-02T13:45:30;99765.00;;;27.37;24.80
16613;BME280;8419;52.358;9.752;2024-03-02T13:48:15;99759.00;;;27.66;24.56
16613;BME280;8419;52.358;9.752;2024-03-02T13:51:00;99767.00;;;28.00;24.04
16613;BME280;8419;52.358;9.752;2024-03-02T13:53:46;99763.00;;;28.01;24.00
16613;BME280;8419;52.358;9.752;2024-03-02T13:56:31;99758.00;;;28.03;24.02
16613;BME280;8419;52.358;9.752;2024-03-02T13:59:17;99755.00;;;28.09;24.00
16613;BME280;8419;52.358;9.752;2024-03-02T14:02:04;99758.00;;;28.23;23.87
16613;BME280;8419;52.358;9.752;2024-03-02T14:04:50;99764.00;;;28.08;23.93
16613;BME280;8419;52.358;9.752;2024-03-02T14:07:37;99753.00;;;27.65;24.25
16613;BME280;8419;52.358;9.752;2024-03-02T14:10:22;99751.00;;;27.51;24.28
16613;BME280;8419;52.358;9.752;2024-03-02T14:13:08;99754.00;;;27.66;24.14
16613;BME280;8419;52.358;9.752;2024-03-02T14:15:53;99750.00;;;27.67;24.11
16613;BME280;8419;52.358;9.752;2024-03-02T14:18:39;99745.00;;;27.54;24.21
16613;BME280;8419;52.358;9.752;2024-03-02T14:21:24;99751.00;;;27.10;24.53
16613;BME280;8419;52.358;9.752;2024-03-02T14:24:10;99745.00;;;26.79;24.82
16613;BME280;8419;52.358;9.752;2024-03-02T14:26:55;99748.00;;;26.73;24.90
16613;BME280;8419;52.358;9.752;2024-03-02T14:29:46;99744.00;;;26.78;24.75
16613;BME280;8419;52.358;9.752;2024-03-02T14:32:32;99747.00;;;27.19;24.36
16613;BME280;8419;52.358;9.752;2024-03-02T14:35:17;99742.00;;;27.51;23.94
16613;BME280;8419;52.358;9.752;2024-03-02T14:38:04;99749.00;;;27.30;24.06
16613;BME280;8419;52.358;9.752;2024-03-02T14:40:49;99736.00;;;27.06;24.37
16613;BME280;8419;52.358;9.752;2024-03-02T14:43:35;99735.00;;;27.05;24.46
16613;BME280;8419;52.358;9.752;2024-03-02T14:46:22;99743.00;;;27.23;24.27
16613;BME280;8419;52.358;9.752;2024-03-02T14:49:07;99732.00;;;27.00;24.40
16613;BME280;8419;52.358;9.752;2024-03-02T14:51:53;99733.00;;;26.98;24.41
16613;BME280;8419;52.358;9.752;2024-03-02T14:54:39;99727.00;;;27.01;24.37
16613;BME280;8419;52.358;9.752;2024-03-02T14:57:24;99733.00;;;26.89;24.46